sensor_id;sensor_type;location;lat;lon;timestamp;temperature;humidity
62575;DHT22;53112;45.602;11.904;2022-11-15T00:00:33;12.60;70.40
62575;DHT22;53112;45.602;11.904;2022-11-15T00:03:00;12.40;70.40
62575;DHT22;53112;45.602;11.904;2022-11-15T00:05:26;12.40;70.70
62575;DHT22;53112;45.602;11.904;2022-11-15T00:07:51;12.40;71.10
62575;DHT22;53112;45.602;11.904;2022-11-15T00:10:17;12.10;72.30
62575;DHT22;53112;45.602;11.904;2022-11-15T00:12:43;12.10;72.10
62575;DHT22;53112;45.602;11.904;2022-11-15T00:15:09;12.20;71.20
62575;DHT22;53112;45.602;11.904;2022-11-15T00:17:35;12.20;70.80
62575;DHT22;53112;45.602;11.904;2022-11-15T00:20:01;12.20;70.50
62575;DHT22;53112;45.602;11.904;2022-11-15T00:22:32;12.20;70.30
62575;DHT22;53112;45.602;11.904;2022-11-15T00:24:58;12.20;70.30
62575;DHT22;53112;45.602;11.904;2022-11-15T00:27:25;12.10;70.80
62575;DHT22;53112;45.602;11.904;2022-11-15T00:29:51;12.10;70.60
62575;DHT22;53112;45.602;11.904;2022-11-15T00:32:17;12.10;70.10
62575;DHT22;53112;45.602;11.904;2022-11-15T00:34:42;11.90;70.30
62575;DHT22;53112;45.602;11.904;2022-11-15T00:37:08;11.90;70.80
62575;DHT22;53112;45.602;11.904;2022-11-15T00:39:34;11.80;70.80
62575;DHT22;53112;45.602;11.904;2022-11-15T00:42:00;11.60;71.90
62575;DHT22;53112;45.602;11.904;2022-11-15T00:44:27;11.40;73.00
62575;DHT22;53112;45.602;11.904;2022-11-15T00:46:52;11.50;71.90
62575;DHT22;53112;45.602;11.904;2022-11-15T00:49:18;11.40;71.90
62575;DHT22;53112;45.602;11.904;2022-11-15T00:51:44;11.50;72.50
62575;DHT22;53112;45.602;11.904;2022-11-15T00:54:10;11.30;74.40
62575;DHT22;53112;45.602;11.904;2022-11-15T00:56:36;11.20;74.80
62575;DHT22;53112;45.602;11.904;2022-11-15T00:59:02;11.40;72.50
62575;DHT22;53112;45.602;11.904;2022-11-15T01:01:28;11.50;71.20
62575;DHT22;53112;45.602;11.904;2022-11-15T01:03:54;11.50;71.30
62575;DHT22;53112;45.602;11.904;2022-11-15T01:06:20;11.50;71.20
62575;DHT22;53112;45.602;11.904;2022-11-15T01:08:46;11.40;70.10
62575;DHT22;53112;45.602;11.904;2022-11-15T01:11:12;11.40;70.50
62575;DHT22;53112;45.602;11.904;2022-11-15T01:13:39;11.20;69.70
62575;DHT22;53112;45.602;11.904;2022-11-15T01:16:14;11.20;69.90
62575;DHT22;53112;45.602;11.904;2022-11-15T01:18:42;11.30;70.50
62575;DHT22;53112;45.602;11.904;2022-11-15T01:21:11;11.20;70.60
62575;DHT22;53112;45.602;11.904;2022-11-15T01:23:37;11.30;71.30
62575;DHT22;53112;45.602;11.904;2022-11-15T01:26:06;11.20;71.70
62575;DHT22;53112;45.602;11.904;2022-11-15T01:28:33;11.30;71.60
62575;DHT22;53112;45.602;11.904;2022-11-15T01:31:05;11.20;72.40
62575;DHT22;53112;45.602;11.904;2022-11-15T01:33:34;10.80;73.40
62575;DHT22;53112;45.602;11.904;2022-11-15T01:36:06;10.80;74.20
62575;DHT22;53112;45.602;11.904;2022-11-15T01:38:32;11.00;73.70
62575;DHT22;53112;45.602;11.904;2022-11-15T01:40:59;11.20;73.10
62575;DHT22;53112;45.602;11.904;2022-11-15T01:43:30;11.30;71.70
62575;DHT22;53112;45.602;11.904;2022-11-15T01:46:06;11.30;71.00
62575;DHT22;53112;45.602;11.904;2022-11-15T01:48:35;11.20;71.10
62575;DHT22;53112;45.602;11.904;2022-11-15T01:51:05;11.30;71.50
62575;DHT22;53112;45.602;11.904;2022-11-15T01:53:34;11.30;70.80
62575;DHT22;53112;45.602;11.904;2022-11-15T01:56:05;11.10;71.50
62575;DHT22;53112;45.602;11.904;2022-11-15T01:58:32;10.70;75.00
62575;DHT22;53112;45.602;11.904;2022-11-15T02:00:59;10.60;76.70
62575;DHT22;53112;45.602;11.904;2022-11-15T02:03:31;10.80;75.20
62575;DHT22;53112;45.602;11.904;2022-11-15T02:05:59;10.70;75.20
62575;DHT22;53112;45.602;11.904;2022-11-15T02:08:25;10.80;75.00
62575;DHT22;53112;45.602;11.904;2022-11-15T02:10:51;10.50;77.60
62575;DHT22;53112;45.602;11.904;2022-11-15T02:13:17;10.80;75.90
62575;DHT22;53112;45.602;11.904;2022-11-15T02:18:49;10.90;75.40
62575;DHT22;53112;45.602;11.904;2022-11-15T02:21:34;10.80;75.50
62575;DHT22;53112;45.602;11.904;2022-11-15T02:27:27;10.90;75.00
62575;DHT22;53112;45.602;11.904;2022-11-15T02:32:50;11.00;73.50
62575;DHT22;53112;45.602;11.904;2022-11-15T02:43:30;10.80;72.40
62575;DHT22;53112;45.602;11.904;2022-11-15T02:52:08;10.70;72.40
62575;DHT22;53112;45.602;11.904;2022-11-15T02:54:35;10.80;71.60
62575;DHT22;53112;45.602;11.904;2022-11-15T02:57:06;10.80;71.40
62575;DHT22;53112;45.602;11.904;2022-11-15T03:00:14;10.70;70.70
62575;DHT22;53112;45.602;11.904;2022-11-15T03:08:00;10.40;70.20
62575;DHT22;53112;45.602;11.904;2022-11-15T03:10:45;10.40;70.80
62575;DHT22;53112;45.602;11.904;2022-11-15T03:16:15;10.40;71.00
62575;DHT22;53112;45.602;11.904;2022-11-15T03:18:50;10.40;71.10
62575;DHT22;53112;45.602;11.904;2022-11-15T03:21:20;10.30;71.60
62575;DHT22;53112;45.602;11.904;2022-11-15T03:23:48;10.40;71.40
62575;DHT22;53112;45.602;11.904;2022-11-15T03:26:18;10.30;70.60
62575;DHT22;53112;45.602;11.904;2022-11-15T03:29:04;9.80;73.60
62575;DHT22;53112;45.602;11.904;2022-11-15T03:31:36;10.00;72.20
62575;DHT22;53112;45.602;11.904;2022-11-15T03:34:31;10.00;72.40
62575;DHT22;53112;45.602;11.904;2022-11-15T03:36:58;9.80;73.40
62575;DHT22;53112;45.602;11.904;2022-11-15T03:39:25;10.00;72.60
62575;DHT22;53112;45.602;11.904;2022-11-15T03:42:13;10.10;72.10
62575;DHT22;53112;45.602;11.904;2022-11-15T03:45:04;10.20;71.40
62575;DHT22;53112;45.602;11.904;2022-11-15T03:47:41;10.30;70.60
62575;DHT22;53112;45.602;11.904;2022-11-15T03:50:15;10.30;70.40
62575;DHT22;53112;45.602;11.904;2022-11-15T03:52:43;10.40;70.40
62575;DHT22;53112;45.602;11.904;2022-11-15T03:55:14;10.50;70.60
62575;DHT22;53112;45.602;11.904;2022-11-15T03:57:41;10.60;71.20
62575;DHT22;53112;45.602;11.904;2022-11-15T04:00:07;10.60;71.00
62575;DHT22;53112;45.602;11.904;2022-11-15T04:02:33;10.60;71.30
62575;DHT22;53112;45.602;11.904;2022-11-15T04:04:59;10.70;71.10
62575;DHT22;53112;45.602;11.904;2022-11-15T04:07:26;10.70;70.90
62575;DHT22;53112;45.602;11.904;2022-11-15T04:09:52;10.50;72.00
62575;DHT22;53112;45.602;11.904;2022-11-15T04:12:39;10.70;71.30
62575;DHT22;53112;45.602;11.904;2022-11-15T04:15:12;10.70;71.10
62575;DHT22;53112;45.602;11.904;2022-11-15T04:17:42;10.80;70.80
62575;DHT22;53112;45.602;11.904;2022-11-15T04:20:25;10.60;71.70
62575;DHT22;53112;45.602;11.904;2022-11-15T04:23:12;10.60;71.30
62575;DHT22;53112;45.602;11.904;2022-11-15T04:25:59;10.40;72.30
62575;DHT22;53112;45.602;11.904;2022-11-15T04:28:25;10.10;73.30
62575;DHT22;53112;45.602;11.904;2022-11-15T04:30:51;9.80;75.00
62575;DHT22;53112;45.602;11.904;2022-11-15T04:33:17;9.70;75.60
62575;DHT22;53112;45.602;11.904;2022-11-15T04:35:43;9.70;75.80
62575;DHT22;53112;45.602;11.904;2022-11-15T04:38:29;9.90;74.70
62575;DHT22;53112;45.602;11.904;2022-11-15T04:40:55;9.60;75.50
62575;DHT22;53112;45.602;11.904;2022-11-15T04:43:21;9.80;74.40
62575;DHT22;53112;45.602;11.904;2022-11-15T04:45:47;9.90;74.10
62575;DHT22;53112;45.602;11.904;2022-11-15T04:48:13;9.40;76.70
62575;DHT22;53112;45.602;11.904;2022-11-15T04:50:39;9.40;76.10
62575;DHT22;53112;45.602;11.904;2022-11-15T04:53:05;9.20;76.30
62575;DHT22;53112;45.602;11.904;2022-11-15T04:55:31;9.30;76.60
62575;DHT22;53112;45.602;11.904;2022-11-15T04:57:59;9.30;76.20
62575;DHT22;53112;45.602;11.904;2022-11-15T05:00:26;9.20;76.60
62575;DHT22;53112;45.602;11.904;2022-11-15T05:02:52;9.10;77.90
62575;DHT22;53112;45.602;11.904;2022-11-15T05:05:37;9.10;77.80
62575;DHT22;53112;45.602;11.904;2022-11-15T05:08:03;9.30;76.30
62575;DHT22;53112;45.602;11.904;2022-11-15T05:10:30;9.50;75.70
62575;DHT22;53112;45.602;11.904;2022-11-15T05:12:56;9.30;76.60
62575;DHT22;53112;45.602;11.904;2022-11-15T05:15:22;9.50;75.90
62575;DHT22;53112;45.602;11.904;2022-11-15T05:17:47;9.80;74.70
62575;DHT22;53112;45.602;11.904;2022-11-15T05:20:13;9.80;73.70
62575;DHT22;53112;45.602;11.904;2022-11-15T05:22:39;9.60;74.80
62575;DHT22;53112;45.602;11.904;2022-11-15T05:25:06;9.80;74.00
62575;DHT22;53112;45.602;11.904;2022-11-15T05:27:33;9.80;73.40
62575;DHT22;53112;45.602;11.904;2022-11-15T05:29:59;10.00;72.20
62575;DHT22;53112;45.602;11.904;2022-11-15T05:32:25;9.90;72.50
62575;DHT22;53112;45.602;11.904;2022-11-15T05:34:51;10.00;71.90
62575;DHT22;53112;45.602;11.904;2022-11-15T05:37:18;10.00;70.90
62575;DHT22;53112;45.602;11.904;2022-11-15T05:39:43;10.00;71.60
62575;DHT22;53112;45.602;11.904;2022-11-15T05:42:14;9.80;71.80
62575;DHT22;53112;45.602;11.904;2022-11-15T05:44:44;9.70;72.80
62575;DHT22;53112;45.602;11.904;2022-11-15T05:47:18;9.80;72.40
62575;DHT22;53112;45.602;11.904;2022-11-15T05:49:47;9.60;73.00
62575;DHT22;53112;45.602;11.904;2022-11-15T05:52:17;9.40;73.90
62575;DHT22;53112;45.602;11.904;2022-11-15T05:54:44;9.40;73.80
62575;DHT22;53112;45.602;11.904;2022-11-15T05:57:10;9.50;72.30
62575;DHT22;53112;45.602;11.904;2022-11-15T05:59:36;9.70;72.10
62575;DHT22;53112;45.602;11.904;2022-11-15T06:02:03;9.70;70.90
62575;DHT22;53112;45.602;11.904;2022-11-15T06:04:29;9.70;71.50
62575;DHT22;53112;45.602;11.904;2022-11-15T06:06:54;9.80;71.20
62575;DHT22;53112;45.602;11.904;2022-11-15T06:09:20;9.60;71.70
62575;DHT22;53112;45.602;11.904;2022-11-15T06:11:46;9.70;71.90
62575;DHT22;53112;45.602;11.904;2022-11-15T06:14:13;9.70;71.20
62575;DHT22;53112;45.602;11.904;2022-11-15T06:16:39;9.70;71.50
62575;DHT22;53112;45.602;11.904;2022-11-15T06:19:06;9.70;72.20
62575;DHT22;53112;45.602;11.904;2022-11-15T06:21:33;9.50;72.60
62575;DHT22;53112;45.602;11.904;2022-11-15T06:23:58;9.50;72.60
62575;DHT22;53112;45.602;11.904;2022-11-15T06:26:24;9.40;73.10
62575;DHT22;53112;45.602;11.904;2022-11-15T06:28:50;9.40;73.50
62575;DHT22;53112;45.602;11.904;2022-11-15T06:31:16;9.50;73.10
62575;DHT22;53112;45.602;11.904;2022-11-15T06:33:42;9.70;72.20
62575;DHT22;53112;45.602;11.904;2022-11-15T06:36:10;9.70;72.00
62575;DHT22;53112;45.602;11.904;2022-11-15T06:38:39;9.60;72.30
62575;DHT22;53112;45.602;11.904;2022-11-15T06:41:07;9.50;73.10
62575;DHT22;53112;45.602;11.904;2022-11-15T06:43:34;9.50;73.20
62575;DHT22;53112;45.602;11.904;2022-11-15T06:46:02;9.60;72.60
62575;DHT22;53112;45.602;11.904;2022-11-15T06:48:29;9.50;73.40
62575;DHT22;53112;45.602;11.904;2022-11-15T06:50:58;9.60;73.30
62575;DHT22;53112;45.602;11.904;2022-11-15T06:53:25;9.40;73.70
62575;DHT22;53112;45.602;11.904;2022-11-15T06:55:51;9.10;75.30
62575;DHT22;53112;45.602;11.904;2022-11-15T06:58:17;9.00;75.50
62575;DHT22;53112;45.602;11.904;2022-11-15T07:00:43;9.20;75.10
62575;DHT22;53112;45.602;11.904;2022-11-15T07:03:10;9.20;75.10
62575;DHT22;53112;45.602;11.904;2022-11-15T07:05:36;9.20;75.00
62575;DHT22;53112;45.602;11.904;2022-11-15T07:08:02;9.10;76.20
62575;DHT22;53112;45.602;11.904;2022-11-15T07:10:29;9.30;75.00
62575;DHT22;53112;45.602;11.904;2022-11-15T07:12:55;9.70;74.40
62575;DHT22;53112;45.602;11.904;2022-11-15T07:15:24;9.20;75.30
62575;DHT22;53112;45.602;11.904;2022-11-15T07:17:50;9.40;74.60
62575;DHT22;53112;45.602;11.904;2022-11-15T07:20:17;9.60;74.30
62575;DHT22;53112;45.602;11.904;2022-11-15T07:22:44;10.10;73.00
62575;DHT22;53112;45.602;11.904;2022-11-15T07:25:11;10.10;73.30
62575;DHT22;53112;45.602;11.904;2022-11-15T07:27:37;10.10;71.80
62575;DHT22;53112;45.602;11.904;2022-11-15T07:30:04;10.10;72.00
62575;DHT22;53112;45.602;11.904;2022-11-15T07:32:31;10.20;72.00
62575;DHT22;53112;45.602;11.904;2022-11-15T07:34:56;9.80;73.50
62575;DHT22;53112;45.602;11.904;2022-11-15T07:37:22;9.60;74.40
62575;DHT22;53112;45.602;11.904;2022-11-15T07:39:48;9.50;75.20
62575;DHT22;53112;45.602;11.904;2022-11-15T07:42:14;9.80;74.20
62575;DHT22;53112;45.602;11.904;2022-11-15T07:44:58;9.90;73.20
62575;DHT22;53112;45.602;11.904;2022-11-15T07:47:24;9.60;74.20
62575;DHT22;53112;45.602;11.904;2022-11-15T07:49:51;9.20;75.60
62575;DHT22;53112;45.602;11.904;2022-11-15T07:52:17;9.20;76.80
62575;DHT22;53112;45.602;11.904;2022-11-15T07:54:43;9.40;75.70
62575;DHT22;53112;45.602;11.904;2022-11-15T07:57:09;9.30;77.10
62575;DHT22;53112;45.602;11.904;2022-11-15T07:59:35;9.40;76.60
62575;DHT22;53112;45.602;11.904;2022-11-15T08:02:02;9.80;75.40
62575;DHT22;53112;45.602;11.904;2022-11-15T08:04:28;10.10;74.60
62575;DHT22;53112;45.602;11.904;2022-11-15T08:06:54;10.40;73.30
62575;DHT22;53112;45.602;11.904;2022-11-15T08:09:20;10.70;72.20
62575;DHT22;53112;45.602;11.904;2022-11-15T08:11:46;10.60;72.40
62575;DHT22;53112;45.602;11.904;2022-11-15T08:14:11;11.00;72.60
62575;DHT22;53112;45.602;11.904;2022-11-15T08:16:38;11.40;70.60
62575;DHT22;53112;45.602;11.904;2022-11-15T08:19:04;11.80;70.20
62575;DHT22;53112;45.602;11.904;2022-11-15T08:21:30;11.90;69.90
62575;DHT22;53112;45.602;11.904;2022-11-15T08:23:56;12.10;69.40
62575;DHT22;53112;45.602;11.904;2022-11-15T08:26:22;12.20;68.30
62575;DHT22;53112;45.602;11.904;2022-11-15T08:28:48;12.40;67.80
62575;DHT22;53112;45.602;11.904;2022-11-15T08:31:16;12.40;68.20
62575;DHT22;53112;45.602;11.904;2022-11-15T08:33:43;12.40;69.10
62575;DHT22;53112;45.602;11.904;2022-11-15T08:36:14;12.80;68.40
62575;DHT22;53112;45.602;11.904;2022-11-15T08:38:40;12.70;68.00
62575;DHT22;53112;45.602;11.904;2022-11-15T08:41:06;12.90;67.90
62575;DHT22;53112;45.602;11.904;2022-11-15T08:43:32;13.20;66.70
62575;DHT22;53112;45.602;11.904;2022-11-15T08:45:58;13.20;67.50
62575;DHT22;53112;45.602;11.904;2022-11-15T08:48:24;13.20;68.00
62575;DHT22;53112;45.602;11.904;2022-11-15T08:50:54;13.30;66.90
62575;DHT22;53112;45.602;11.904;2022-11-15T08:53:21;13.30;67.00
62575;DHT22;53112;45.602;11.904;2022-11-15T08:55:47;12.90;67.60
62575;DHT22;53112;45.602;11.904;2022-11-15T08:58:13;13.30;67.70
62575;DHT22;53112;45.602;11.904;2022-11-15T09:00:39;14.00;67.30
62575;DHT22;53112;45.602;11.904;2022-11-15T09:03:06;14.10;64.70
62575;DHT22;53112;45.602;11.904;2022-11-15T09:05:32;14.50;64.50
62575;DHT22;53112;45.602;11.904;2022-11-15T09:07:58;14.40;65.80
62575;DHT22;53112;45.602;11.904;2022-11-15T09:10:24;15.00;64.30
62575;DHT22;53112;45.602;11.904;2022-11-15T09:12:50;14.30;65.20
62575;DHT22;53112;45.602;11.904;2022-11-15T09:15:17;14.50;64.40
62575;DHT22;53112;45.602;11.904;2022-11-15T09:17:43;14.70;65.70
62575;DHT22;53112;45.602;11.904;2022-11-15T09:20:09;15.10;64.40
62575;DHT22;53112;45.602;11.904;2022-11-15T09:22:35;14.80;65.20
62575;DHT22;53112;45.602;11.904;2022-11-15T09:25:03;14.30;65.10
62575;DHT22;53112;45.602;11.904;2022-11-15T09:27:29;14.40;66.40
62575;DHT22;53112;45.602;11.904;2022-11-15T09:29:55;14.50;65.00
62575;DHT22;53112;45.602;11.904;2022-11-15T09:32:22;14.70;66.90
62575;DHT22;53112;45.602;11.904;2022-11-15T09:34:50;14.80;65.60
62575;DHT22;53112;45.602;11.904;2022-11-15T09:37:16;15.10;64.70
62575;DHT22;53112;45.602;11.904;2022-11-15T09:39:42;15.10;64.90
62575;DHT22;53112;45.602;11.904;2022-11-15T09:42:12;15.00;65.40
62575;DHT22;53112;45.602;11.904;2022-11-15T09:45:20;15.00;64.10
62575;DHT22;53112;45.602;11.904;2022-11-15T09:50:44;14.30;67.30
62575;DHT22;53112;45.602;11.904;2022-11-15T09:53:33;14.70;65.10
62575;DHT22;53112;45.602;11.904;2022-11-15T09:56:03;14.70;66.50
62575;DHT22;53112;45.602;11.904;2022-11-15T09:58:39;14.80;65.60
62575;DHT22;53112;45.602;11.904;2022-11-15T10:04:09;15.10;64.80
62575;DHT22;53112;45.602;11.904;2022-11-15T10:06:42;15.50;64.60
62575;DHT22;53112;45.602;11.904;2022-11-15T10:09:22;15.70;63.50
62575;DHT22;53112;45.602;11.904;2022-11-15T10:11:50;15.90;62.80
62575;DHT22;53112;45.602;11.904;2022-11-15T10:14:21;15.90;63.10
62575;DHT22;53112;45.602;11.904;2022-11-15T10:22:41;16.50;61.70
62575;DHT22;53112;45.602;11.904;2022-11-15T10:25:17;16.60;60.70
62575;DHT22;53112;45.602;11.904;2022-11-15T10:30:36;16.40;61.90
62575;DHT22;53112;45.602;11.904;2022-11-15T10:40:23;16.40;60.60
62575;DHT22;53112;45.602;11.904;2022-11-15T10:43:17;17.30;59.40
62575;DHT22;53112;45.602;11.904;2022-11-15T10:45:45;17.60;58.60
62575;DHT22;53112;45.602;11.904;2022-11-15T10:50:38;17.90;57.70
62575;DHT22;53112;45.602;11.904;2022-11-15T10:55:47;18.10;57.00
62575;DHT22;53112;45.602;11.904;2022-11-15T11:00:48;18.50;55.90
62575;DHT22;53112;45.602;11.904;2022-11-15T11:03:35;18.70;55.30
62575;DHT22;53112;45.602;11.904;2022-11-15T11:06:16;18.80;55.00
62575;DHT22;53112;45.602;11.904;2022-11-15T11:09:00;18.90;55.10
62575;DHT22;53112;45.602;11.904;2022-11-15T11:11:46;18.90;55.50
62575;DHT22;53112;45.602;11.904;2022-11-15T11:14:19;18.90;54.00
62575;DHT22;53112;45.602;11.904;2022-11-15T11:27:59;18.50;54.70
62575;DHT22;53112;45.602;11.904;2022-11-15T11:30:53;18.10;54.80
62575;DHT22;53112;45.602;11.904;2022-11-15T11:38:47;17.90;56.80
62575;DHT22;53112;45.602;11.904;2022-11-15T11:46:44;18.90;54.80
62575;DHT22;53112;45.602;11.904;2022-11-15T11:49:24;18.80;54.70
62575;DHT22;53112;45.602;11.904;2022-11-15T12:00:19;18.00;56.50
62575;DHT22;53112;45.602;11.904;2022-11-15T12:05:35;17.10;60.20
62575;DHT22;53112;45.602;11.904;2022-11-15T12:08:21;17.30;59.90
62575;DHT22;53112;45.602;11.904;2022-11-15T12:13:49;16.90;59.90
62575;DHT22;53112;45.602;11.904;2022-11-15T12:16:26;17.00;60.10
62575;DHT22;53112;45.602;11.904;2022-11-15T12:18:54;17.30;59.60
62575;DHT22;53112;45.602;11.904;2022-11-15T12:27:23;17.10;59.70
62575;DHT22;53112;45.602;11.904;2022-11-15T12:29:53;17.50;58.90
62575;DHT22;53112;45.602;11.904;2022-11-15T12:32:29;17.40;58.60
62575;DHT22;53112;45.602;11.904;2022-11-15T12:34:57;16.80;60.10
62575;DHT22;53112;45.602;11.904;2022-11-15T12:40:26;17.00;61.30
62575;DHT22;53112;45.602;11.904;2022-11-15T12:43:40;17.10;61.20
62575;DHT22;53112;45.602;11.904;2022-11-15T12:46:12;17.00;61.30
62575;DHT22;53112;45.602;11.904;2022-11-15T12:51:05;17.20;61.10
62575;DHT22;53112;45.602;11.904;2022-11-15T12:53:33;17.40;61.10
62575;DHT22;53112;45.602;11.904;2022-11-15T12:58:58;17.20;60.20
62575;DHT22;53112;45.602;11.904;2022-11-15T13:06:43;17.10;61.40
62575;DHT22;53112;45.602;11.904;2022-11-15T13:17:27;16.70;63.60
62575;DHT22;53112;45.602;11.904;2022-11-15T13:26:11;17.20;62.00
62575;DHT22;53112;45.602;11.904;2022-11-15T13:31:29;16.70;62.80
62575;DHT22;53112;45.602;11.904;2022-11-15T13:33:58;17.00;62.20
62575;DHT22;53112;45.602;11.904;2022-11-15T13:36:31;17.20;62.40
62575;DHT22;53112;45.602;11.904;2022-11-15T13:41:30;16.60;63.30
62575;DHT22;53112;45.602;11.904;2022-11-15T13:43:58;16.40;64.00
62575;DHT22;53112;45.602;11.904;2022-11-15T13:46:33;16.40;65.00
62575;DHT22;53112;45.602;11.904;2022-11-15T13:49:29;16.30;65.70
62575;DHT22;53112;45.602;11.904;2022-11-15T13:51:55;16.30;65.30
62575;DHT22;53112;45.602;11.904;2022-11-15T13:54:42;16.40;65.20
62575;DHT22;53112;45.602;11.904;2022-11-15T13:59:49;16.60;64.80
62575;DHT22;53112;45.602;11.904;2022-11-15T14:02:21;16.70;64.60
62575;DHT22;53112;45.602;11.904;2022-11-15T14:04:57;16.90;64.40
62575;DHT22;53112;45.602;11.904;2022-11-15T14:07:26;17.00;64.20
62575;DHT22;53112;45.602;11.904;2022-11-15T14:09:53;16.90;64.70
62575;DHT22;53112;45.602;11.904;2022-11-15T14:12:34;17.00;64.50
62575;DHT22;53112;45.602;11.904;2022-11-15T14:15:28;16.90;64.90
62575;DHT22;53112;45.602;11.904;2022-11-15T14:17:54;16.90;65.20
62575;DHT22;53112;45.602;11.904;2022-11-15T14:23:00;16.80;65.10
62575;DHT22;53112;45.602;11.904;2022-11-15T14:25:29;16.50;65.80
62575;DHT22;53112;45.602;11.904;2022-11-15T14:30:45;16.60;64.30
62575;DHT22;53112;45.602;11.904;2022-11-15T14:33:37;16.70;64.90
62575;DHT22;53112;45.602;11.904;2022-11-15T14:36:22;16.60;65.20
62575;DHT22;53112;45.602;11.904;2022-11-15T14:38:48;16.80;65.00
62575;DHT22;53112;45.602;11.904;2022-11-15T14:41:24;16.90;64.00
62575;DHT22;53112;45.602;11.904;2022-11-15T14:43:52;16.90;64.60
62575;DHT22;53112;45.602;11.904;2022-11-15T14:46:18;16.80;64.00
62575;DHT22;53112;45.602;11.904;2022-11-15T14:48:45;16.80;64.00
62575;DHT22;53112;45.602;11.904;2022-11-15T14:51:13;16.90;63.40
62575;DHT22;53112;45.602;11.904;2022-11-15T14:53:40;16.90;64.00
62575;DHT22;53112;45.602;11.904;2022-11-15T14:56:07;16.80;64.30
62575;DHT22;53112;45.602;11.904;2022-11-15T14:58:33;16.70;64.60
62575;DHT22;53112;45.602;11.904;2022-11-15T15:00:59;16.80;64.70
62575;DHT22;53112;45.602;11.904;2022-11-15T15:03:25;16.70;64.70
62575;DHT22;53112;45.602;11.904;2022-11-15T15:05:51;16.70;63.80
62575;DHT22;53112;45.602;11.904;2022-11-15T15:08:17;16.70;64.50
62575;DHT22;53112;45.602;11.904;2022-11-15T15:10:44;16.70;64.40
62575;DHT22;53112;45.602;11.904;2022-11-15T15:13:21;16.70;63.80
62575;DHT22;53112;45.602;11.904;2022-11-15T15:15:48;16.60;64.40
62575;DHT22;53112;45.602;11.904;2022-11-15T15:18:15;16.60;64.40
62575;DHT22;53112;45.602;11.904;2022-11-15T15:20:43;16.60;65.10
62575;DHT22;53112;45.602;11.904;2022-11-15T15:23:17;16.60;65.20
62575;DHT22;53112;45.602;11.904;2022-11-15T15:25:44;16.40;66.10
62575;DHT22;53112;45.602;11.904;2022-11-15T15:28:11;16.40;65.10
62575;DHT22;53112;45.602;11.904;2022-11-15T15:30:37;16.40;65.10
62575;DHT22;53112;45.602;11.904;2022-11-15T15:33:03;16.40;65.70
62575;DHT22;53112;45.602;11.904;2022-11-15T15:35:31;16.30;66.20
62575;DHT22;53112;45.602;11.904;2022-11-15T15:37:58;16.40;65.90
62575;DHT22;53112;45.602;11.904;2022-11-15T15:40:26;16.40;66.00
62575;DHT22;53112;45.602;11.904;2022-11-15T15:42:52;16.20;65.50
62575;DHT22;53112;45.602;11.904;2022-11-15T15:45:18;16.20;65.60
62575;DHT22;53112;45.602;11.904;2022-11-15T15:47:45;16.10;66.00
62575;DHT22;53112;45.602;11.904;2022-11-15T15:50:32;16.00;67.00
62575;DHT22;53112;45.602;11.904;2022-11-15T15:53:00;16.10;67.10
62575;DHT22;53112;45.602;11.904;2022-11-15T15:55:27;15.90;67.40
62575;DHT22;53112;45.602;11.904;2022-11-15T15:57:54;15.90;66.90
62575;DHT22;53112;45.602;11.904;2022-11-15T16:00:22;15.90;67.30
62575;DHT22;53112;45.602;11.904;2022-11-15T16:02:52;15.90;67.40
62575;DHT22;53112;45.602;11.904;2022-11-15T16:05:18;15.80;67.80
62575;DHT22;53112;45.602;11.904;2022-11-15T16:07:45;15.70;68.50
62575;DHT22;53112;45.602;11.904;2022-11-15T16:10:32;15.70;68.10
62575;DHT22;53112;45.602;11.904;2022-11-15T16:12:59;15.90;68.00
62575;DHT22;53112;45.602;11.904;2022-11-15T16:15:28;15.90;67.40
62575;DHT22;53112;45.602;11.904;2022-11-15T16:17:59;15.90;67.70
62575;DHT22;53112;45.602;11.904;2022-11-15T16:20:40;15.90;67.60
62575;DHT22;53112;45.602;11.904;2022-11-15T16:23:10;15.90;67.50
62575;DHT22;53112;45.602;11.904;2022-11-15T16:25:53;15.90;67.70
62575;DHT22;53112;45.602;11.904;2022-11-15T16:28:27;15.80;67.80
62575;DHT22;53112;45.602;11.904;2022-11-15T16:31:04;15.90;67.40
62575;DHT22;53112;45.602;11.904;2022-11-15T16:33:31;15.80;67.10
62575;DHT22;53112;45.602;11.904;2022-11-15T16:35:57;15.90;67.00
62575;DHT22;53112;45.602;11.904;2022-11-15T16:38:23;15.90;67.10
62575;DHT22;53112;45.602;11.904;2022-11-15T16:40:49;15.90;67.30
62575;DHT22;53112;45.602;11.904;2022-11-15T16:43:15;15.80;67.80
62575;DHT22;53112;45.602;11.904;2022-11-15T16:45:41;15.70;67.80
62575;DHT22;53112;45.602;11.904;2022-11-15T16:48:22;15.80;67.60
62575;DHT22;53112;45.602;11.904;2022-11-15T16:50:50;15.80;67.50
62575;DHT22;53112;45.602;11.904;2022-11-15T16:53:19;15.70;67.70
62575;DHT22;53112;45.602;11.904;2022-11-15T16:55:45;15.70;67.60
62575;DHT22;53112;45.602;11.904;2022-11-15T16:58:11;15.70;67.80
62575;DHT22;53112;45.602;11.904;2022-11-15T17:00:37;15.80;67.70
62575;DHT22;53112;45.602;11.904;2022-11-15T17:03:03;15.70;67.70
62575;DHT22;53112;45.602;11.904;2022-11-15T17:05:29;15.70;67.90
62575;DHT22;53112;45.602;11.904;2022-11-15T17:07:55;15.70;67.60
62575;DHT22;53112;45.602;11.904;2022-11-15T17:10:23;15.70;67.50
62575;DHT22;53112;45.602;11.904;2022-11-15T17:12:51;15.70;67.20
62575;DHT22;53112;45.602;11.904;2022-11-15T17:15:17;15.70;67.30
62575;DHT22;53112;45.602;11.904;2022-11-15T17:17:45;15.60;67.30
62575;DHT22;53112;45.602;11.904;2022-11-15T17:20:17;15.60;67.60
62575;DHT22;53112;45.602;11.904;2022-11-15T17:22:43;15.60;67.40
62575;DHT22;53112;45.602;11.904;2022-11-15T17:25:10;15.50;67.60
62575;DHT22;53112;45.602;11.904;2022-11-15T17:27:36;15.50;67.90
62575;DHT22;53112;45.602;11.904;2022-11-15T17:30:02;15.40;68.10
62575;DHT22;53112;45.602;11.904;2022-11-15T17:32:28;15.50;68.10
62575;DHT22;53112;45.602;11.904;2022-11-15T17:34:54;15.40;67.60
62575;DHT22;53112;45.602;11.904;2022-11-15T17:37:20;15.50;67.50
62575;DHT22;53112;45.602;11.904;2022-11-15T17:39:45;15.40;67.90
62575;DHT22;53112;45.602;11.904;2022-11-15T17:42:11;15.30;68.20
62575;DHT22;53112;45.602;11.904;2022-11-15T17:44:37;15.30;68.70
62575;DHT22;53112;45.602;11.904;2022-11-15T17:47:03;15.20;68.80
62575;DHT22;53112;45.602;11.904;2022-11-15T17:49:29;15.10;68.70
62575;DHT22;53112;45.602;11.904;2022-11-15T17:51:55;15.20;68.70
62575;DHT22;53112;45.602;11.904;2022-11-15T17:54:21;15.30;68.00
62575;DHT22;53112;45.602;11.904;2022-11-15T17:56:47;15.40;68.00
62575;DHT22;53112;45.602;11.904;2022-11-15T17:59:12;15.30;68.10